createdAt,value
2019-03-22T00:00:36.941Z,99.80
2019-03-22T00:03:19.954Z,99.80
2019-03-22T00:05:55.949Z,99.80
2019-03-22T00:08:31.734Z,99.80
2019-03-22T00:11:14.016Z,99.80
2019-03-22T00:13:49.844Z,99.80
2019-03-22T00:16:32.683Z,99.90
2019-03-22T00:19:15.178Z,99.90
2019-03-22T00:21:51.629Z,99.90
2019-03-22T00:24:34.290Z,99.90
2019-03-22T00:27:16.289Z,99.90
2019-03-22T00:29:54.182Z,99.90
2019-03-22T00:32:37.626Z,99.90
2019-03-22T00:35:19.934Z,99.90
2019-03-22T00:37:56.301Z,99.90
2019-03-22T00:40:38.626Z,99.90
2019-03-22T00:43:20.891Z,99.90
2019-03-22T00:46:03.895Z,99.90
2019-03-22T00:48:46.210Z,99.90
2019-03-22T00:51:22.320Z,99.90
2019-03-22T00:54:04.890Z,99.90
2019-03-22T00:56:40.439Z,99.90
2019-03-22T00:59:22.518Z,99.90
2019-03-22T01:02:05.938Z,99.90
2019-03-22T01:04:47.987Z,99.90
2019-03-22T01:07:23.915Z,99.90
2019-03-22T01:09:59.369Z,99.90
2019-03-22T01:12:42.278Z,99.90
2019-03-22T01:15:24.141Z,99.90
2019-03-22T01:18:00.458Z,99.90
2019-03-22T01:20:43.410Z,99.90
2019-03-22T01:23:19.860Z,99.90
2019-03-22T01:26:02.851Z,99.90
2019-03-22T01:28:38.699Z,99.90
2019-03-22T01:31:21.009Z,99.90
2019-03-22T01:33:56.887Z,99.90
2019-03-22T01:36:39.293Z,99.90
2019-03-22T01:39:22.459Z,99.90
2019-03-22T01:42:05.206Z,99.90
2019-03-22T01:44:41.236Z,99.90
2019-03-22T01:47:23.980Z,99.90
2019-03-22T01:50:00.422Z,99.90
2019-03-22T01:52:42.514Z,99.90
2019-03-22T01:55:19.127Z,99.90
2019-03-22T01:58:01.739Z,99.90
2019-03-22T02:00:37.981Z,99.90
2019-03-22T02:03:21.056Z,99.90
2019-03-22T02:05:56.802Z,99.90
2019-03-22T02:08:39.135Z,99.90
2019-03-22T02:11:15.066Z,99.90
2019-03-22T02:13:57.654Z,99.90
2019-03-22T02:16:33.168Z,99.90
2019-03-22T02:19:15.508Z,99.90
2019-03-22T02:21:51.774Z,99.90
2019-03-22T02:24:34.748Z,99.90
2019-03-22T02:27:10.674Z,99.90
2019-03-22T02:29:53.796Z,99.90
2019-03-22T02:32:29.493Z,99.90
2019-03-22T02:35:05.686Z,99.90
2019-03-22T02:37:41.451Z,99.90
2019-03-22T02:40:26.753Z,99.90
2019-03-22T02:43:02.477Z,99.90
2019-03-22T02:45:45.476Z,99.90
2019-03-22T02:48:28.194Z,99.90
2019-03-22T02:51:03.803Z,99.90
2019-03-22T02:53:39.736Z,99.90
2019-03-22T02:56:22.437Z,99.90
2019-03-22T02:58:59.490Z,99.90
2019-03-22T03:01:42.690Z,99.90
2019-03-22T03:04:25.042Z,99.90
2019-03-22T03:07:07.984Z,99.90
2019-03-22T03:09:50.770Z,99.90
2019-03-22T03:12:32.873Z,99.90
2019-03-22T03:15:13.178Z,99.90
2019-03-22T03:17:49.222Z,99.90
2019-03-22T03:20:26.580Z,99.90
2019-03-22T03:23:09.041Z,99.90
2019-03-22T03:25:44.686Z,99.90
2019-03-22T03:28:36.462Z,99.90
2019-03-22T03:31:05.320Z,99.90
2019-03-22T03:33:47.898Z,99.90
2019-03-22T03:36:24.310Z,99.90
2019-03-22T03:39:07.101Z,99.90
2019-03-22T03:41:50.577Z,99.90
2019-03-22T03:44:34.120Z,99.90
2019-03-22T03:47:10.689Z,99.90
2019-03-22T03:49:53.741Z,99.90
2019-03-22T03:52:39.365Z,99.90
2019-03-22T03:55:27.483Z,99.90
2019-03-22T03:58:09.507Z,99.90
2019-03-22T04:00:45.427Z,99.90
2019-03-22T04:03:28.487Z,99.90
2019-03-22T04:06:03.978Z,99.90
2019-03-22T04:08:46.987Z,99.90
2019-03-22T04:11:23.056Z,99.90
2019-03-22T04:14:05.722Z,99.90
2019-03-22T04:16:41.824Z,99.90
2019-03-22T04:19:24.321Z,99.90
2019-03-22T04:22:00.925Z,99.90
2019-03-22T04:24:44.010Z,99.90
2019-03-22T04:27:19.584Z,99.90
2019-03-22T04:30:01.597Z,99.90
2019-03-22T04:32:37.224Z,99.90
2019-03-22T04:35:19.974Z,99.90
2019-03-22T04:38:03.281Z,99.90
2019-03-22T04:40:45.326Z,99.90
2019-03-22T04:43:28.593Z,99.90
2019-03-22T04:46:11.208Z,99.90
2019-03-22T04:48:55.621Z,99.90
2019-03-22T04:51:39.105Z,99.90
2019-03-22T04:54:16.080Z,99.90
2019-03-22T04:57:01.083Z,99.90
2019-03-22T04:59:38.747Z,99.90
2019-03-22T05:02:23.382Z,99.90
2019-03-22T05:05:06.844Z,99.90
2019-03-22T05:07:51.723Z,99.90
2019-03-22T05:10:29.679Z,99.90
2019-03-22T05:13:17.545Z,99.90
2019-03-22T05:15:55.022Z,99.90
2019-03-22T05:18:42.917Z,99.90
2019-03-22T05:21:20.298Z,99.90
2019-03-22T05:24:07.934Z,99.90
2019-03-22T05:26:53.340Z,99.90
2019-03-22T05:29:39.942Z,99.90
2019-03-22T05:32:25.071Z,99.90
2019-03-22T05:35:07.541Z,99.90
2019-03-22T05:37:50.247Z,99.90
2019-03-22T05:40:26.073Z,99.90
2019-03-22T05:43:08.233Z,99.90
2019-03-22T05:45:50.958Z,99.90
2019-03-22T05:48:34.038Z,99.90
2019-03-22T05:51:16.622Z,99.90
2019-03-22T05:53:52.215Z,99.90
2019-03-22T05:56:33.857Z,99.90
2019-03-22T05:59:09.306Z,99.90
2019-03-22T06:01:51.818Z,99.90
2019-03-22T06:04:28.146Z,99.90
2019-03-22T06:07:10.728Z,99.90
2019-03-22T06:09:53.798Z,99.90
2019-03-22T06:12:36.964Z,99.90
2019-03-22T06:15:25.967Z,99.90
2019-03-22T06:18:08.680Z,99.90
2019-03-22T06:20:50.900Z,99.80
2019-03-22T06:23:33.637Z,99.80
2019-03-22T06:26:16.562Z,99.80
2019-03-22T06:28:53.026Z,99.60
2019-03-22T06:31:35.807Z,99.60
2019-03-22T06:34:18.848Z,99.90
2019-03-22T06:36:55.086Z,99.50
2019-03-22T06:39:38.036Z,99.50
2019-03-22T06:42:20.128Z,99.60
2019-03-22T06:44:55.759Z,99.50
2019-03-22T06:47:37.899Z,99.50
2019-03-22T06:50:14.676Z,99.60
2019-03-22T06:52:56.242Z,99.40
2019-03-22T06:55:32.578Z,99.30
2019-03-22T06:58:14.651Z,99.20
2019-03-22T07:00:57.527Z,99.30
2019-03-22T07:03:33.277Z,99.10
2019-03-22T07:06:15.384Z,98.80
2019-03-22T07:08:51.033Z,98.70
2019-03-22T07:11:33.361Z,98.60
2019-03-22T07:14:22.876Z,98.50
2019-03-22T07:17:05.901Z,98.60
2019-03-22T07:19:42.327Z,98.20
2019-03-22T07:22:25.590Z,98.20
2019-03-22T07:25:08.650Z,98.00
2019-03-22T07:27:51.478Z,97.50
2019-03-22T07:30:36.375Z,97.50
2019-03-22T07:33:25.438Z,97.70
2019-03-22T07:36:01.184Z,97.40
2019-03-22T07:38:43.991Z,97.50
2019-03-22T07:41:20.023Z,97.50
2019-03-22T07:44:02.745Z,97.60
2019-03-22T07:46:51.675Z,97.20
2019-03-22T07:49:27.869Z,97.20
2019-03-22T07:52:10.929Z,97.00
2019-03-22T07:54:47.385Z,96.90
2019-03-22T07:57:29.910Z,97.10
2019-03-22T08:00:30.684Z,97.10
2019-03-22T08:03:01.462Z,96.90
2019-03-22T08:05:37.664Z,96.80
2019-03-22T08:08:20.281Z,96.80
2019-03-22T08:10:55.860Z,96.70
2019-03-22T08:13:38.520Z,96.80
2019-03-22T08:16:20.753Z,97.00
2019-03-22T08:18:57.366Z,96.80
2019-03-22T08:21:39.389Z,96.30
2019-03-22T08:24:21.659Z,95.70
2019-03-22T08:27:03.808Z,95.60
2019-03-22T08:29:40.101Z,95.30
2019-03-22T08:32:23.416Z,95.20
2019-03-22T08:34:59.760Z,94.60
2019-03-22T08:37:52.110Z,94.40
2019-03-22T08:40:18.894Z,94.30
2019-03-22T08:43:01.286Z,94.20
2019-03-22T08:45:37.600Z,94.80
2019-03-22T08:48:20.220Z,93.80
2019-03-22T08:50:56.757Z,93.80
2019-03-22T08:53:39.282Z,93.80
2019-03-22T08:56:21.535Z,94.10
2019-03-22T08:58:57.162Z,94.30
2019-03-22T09:01:39.126Z,93.90
2019-03-22T09:04:21.635Z,93.60
2019-03-22T09:07:04.843Z,93.60
2019-03-22T09:09:47.631Z,94.10
2019-03-22T09:12:26.785Z,93.30
2019-03-22T09:15:08.269Z,93.60
2019-03-22T09:17:50.348Z,93.40
2019-03-22T09:20:27.041Z,93.40
2019-03-22T09:23:16.858Z,93.50
2019-03-22T09:25:53.075Z,93.60
2019-03-22T09:28:35.177Z,93.10
2019-03-22T09:31:11.504Z,92.90
2019-03-22T09:34:01.975Z,93.20
2019-03-22T09:36:44.478Z,93.00
2019-03-22T09:39:20.079Z,93.10
2019-03-22T09:42:02.739Z,93.10
2019-03-22T09:44:46.348Z,92.90
2019-03-22T09:47:22.981Z,92.60
2019-03-22T09:49:59.346Z,92.70
2019-03-22T09:52:41.017Z,92.60
2019-03-22T09:55:17.739Z,93.00
2019-03-22T09:58:00.197Z,93.00
2019-03-22T10:00:38.793Z,93.60
2019-03-22T10:03:21.321Z,93.20
2019-03-22T10:05:57.855Z,93.40
2019-03-22T10:08:39.723Z,93.20
2019-03-22T10:11:16.098Z,92.80
2019-03-22T10:13:58.768Z,93.30
2019-03-22T10:16:47.955Z,93.70
2019-03-22T10:19:30.500Z,93.50
2019-03-22T10:22:06.222Z,94.00
2019-03-22T10:24:49.004Z,93.90
2019-03-22T10:27:25.554Z,93.70
2019-03-22T10:30:08.416Z,93.90
2019-03-22T10:32:44.788Z,93.80
2019-03-22T10:35:27.259Z,93.40
2019-03-22T10:38:04.725Z,92.80
2019-03-22T10:40:41.057Z,92.10
2019-03-22T10:43:23.548Z,92.00
2019-03-22T10:46:07.934Z,91.90
2019-03-22T10:48:50.127Z,91.80
2019-03-22T10:51:26.055Z,91.60
2019-03-22T10:54:01.851Z,91.30
2019-03-22T10:56:44.372Z,91.40
2019-03-22T10:59:20.226Z,91.30
2019-03-22T11:02:04.024Z,91.30
2019-03-22T11:04:53.921Z,91.10
2019-03-22T11:07:36.094Z,90.30
2019-03-22T11:10:19.168Z,90.10
2019-03-22T11:13:01.158Z,90.10
2019-03-22T11:18:43.309Z,88.10
2019-03-22T11:24:20.282Z,88.80
2019-03-22T11:27:02.613Z,87.70
2019-03-22T11:29:51.440Z,87.00
2019-03-22T11:32:34.022Z,85.80
2019-03-22T11:35:18.338Z,85.80
2019-03-22T11:38:00.385Z,85.00
2019-03-22T11:40:36.842Z,84.90
2019-03-22T11:43:19.985Z,85.00
2019-03-22T11:45:56.152Z,86.40
2019-03-22T11:48:39.084Z,85.30
2019-03-22T11:51:15.580Z,84.60
2019-03-22T11:53:57.210Z,84.30
2019-03-22T11:56:40.464Z,83.90
2019-03-22T11:59:23.025Z,84.40
2019-03-22T12:01:59.351Z,84.90
2019-03-22T12:04:41.693Z,82.60
2019-03-22T12:07:23.691Z,83.80
2019-03-22T12:10:12.710Z,84.70
2019-03-22T12:12:48.948Z,83.50
2019-03-22T12:15:36.723Z,83.50
2019-03-22T12:18:19.058Z,82.00
2019-03-22T12:20:56.613Z,82.60
2019-03-22T12:23:39.494Z,82.00
2019-03-22T12:26:22.077Z,82.60
2019-03-22T12:28:58.212Z,83.30
2019-03-22T12:31:34.047Z,82.70
2019-03-22T12:34:17.044Z,83.00
2019-03-22T12:36:59.810Z,83.80
2019-03-22T12:39:36.199Z,81.80
2019-03-22T12:42:18.527Z,81.60
2019-03-22T12:44:54.381Z,82.30
2019-03-22T12:47:36.941Z,82.10
2019-03-22T12:50:15.257Z,81.60
2019-03-22T12:52:58.521Z,81.20
2019-03-22T12:55:41.602Z,80.90
2019-03-22T12:58:17.968Z,81.70
2019-03-22T13:01:00.449Z,81.60
2019-03-22T13:03:43.025Z,80.70
2019-03-22T13:06:25.519Z,80.10
2019-03-22T13:09:14.245Z,79.60
2019-03-22T13:11:56.728Z,79.80
2019-03-22T13:14:32.510Z,79.80
2019-03-22T13:17:15.194Z,80.00
2019-03-22T13:19:51.637Z,79.70
2019-03-22T13:22:34.377Z,80.70
2019-03-22T13:25:10.807Z,79.70
2019-03-22T13:27:53.630Z,78.40
2019-03-22T13:30:43.231Z,79.30
2019-03-22T13:33:26.141Z,78.30
2019-03-22T13:36:08.652Z,79.10
2019-03-22T13:38:50.524Z,78.40
2019-03-22T13:41:32.853Z,79.40
2019-03-22T13:44:21.466Z,78.80
2019-03-22T13:46:56.935Z,79.10
2019-03-22T13:49:39.721Z,78.00
2019-03-22T13:52:29.479Z,78.80
2019-03-22T13:55:13.843Z,78.30
2019-03-22T13:57:49.588Z,78.70
2019-03-22T14:00:31.928Z,78.30
2019-03-22T14:03:14.803Z,78.80
2019-03-22T14:06:03.808Z,78.80
2019-03-22T14:08:39.297Z,77.80
2019-03-22T14:11:22.501Z,77.80
2019-03-22T14:13:59.014Z,79.20
2019-03-22T14:16:42.034Z,79.20
2019-03-22T14:19:24.758Z,78.40
2019-03-22T14:22:07.446Z,78.50
2019-03-22T14:24:43.668Z,78.70
2019-03-22T14:27:25.941Z,79.10
2019-03-22T14:30:01.839Z,77.40
2019-03-22T14:32:38.018Z,77.10
2019-03-22T14:35:15.191Z,76.60
2019-03-22T14:37:57.439Z,77.40
2019-03-22T14:40:33.542Z,76.60
2019-03-22T14:43:16.859Z,76.10
2019-03-22T14:46:00.040Z,75.70
2019-03-22T14:48:42.878Z,75.10
2019-03-22T14:51:18.787Z,75.30
2019-03-22T14:54:00.803Z,74.50
2019-03-22T14:56:36.419Z,72.80
2019-03-22T14:59:19.622Z,73.90
2019-03-22T15:01:55.749Z,75.70
2019-03-22T15:04:37.832Z,74.10
2019-03-22T15:07:19.350Z,74.40
2019-03-22T15:09:57.627Z,74.20
2019-03-22T15:12:33.818Z,74.30
2019-03-22T15:15:37.617Z,73.50
2019-03-22T15:18:18.363Z,72.70
2019-03-22T15:21:17.081Z,73.60
2019-03-22T15:24:10.008Z,73.20
2019-03-22T15:26:57.553Z,72.90
2019-03-22T15:29:47.460Z,73.20
2019-03-22T15:32:37.599Z,70.80
2019-03-22T15:35:27.914Z,71.10
2019-03-22T15:38:22.570Z,70.90
2019-03-22T15:41:05.571Z,70.60
2019-03-22T15:43:43.412Z,70.10
2019-03-22T15:46:27.038Z,69.60
2019-03-22T15:49:02.872Z,70.00
2019-03-22T15:51:46.122Z,70.90
2019-03-22T15:54:21.965Z,71.70
2019-03-22T15:57:03.994Z,72.40
2019-03-22T15:59:39.952Z,72.40
2019-03-22T16:02:22.750Z,72.70
2019-03-22T16:04:58.708Z,73.10
2019-03-22T16:07:41.493Z,73.60
2019-03-22T16:10:18.806Z,74.20
2019-03-22T16:12:54.853Z,74.70
2019-03-22T16:15:37.777Z,75.10
2019-03-22T16:18:20.451Z,75.80
2019-03-22T16:21:10.635Z,76.20
2019-03-22T16:23:53.723Z,76.90
2019-03-22T16:26:36.633Z,76.10
2019-03-22T16:29:19.584Z,75.70
2019-03-22T16:32:02.704Z,75.10
2019-03-22T16:34:45.212Z,74.70
2019-03-22T16:37:21.008Z,75.40
2019-03-22T16:39:56.591Z,75.00
2019-03-22T16:42:39.715Z,75.40
2019-03-22T16:45:50.844Z,75.00
2019-03-22T16:48:40.286Z,75.40
2019-03-22T16:51:16.152Z,75.90
2019-03-22T16:53:58.624Z,75.50
2019-03-22T16:56:41.682Z,76.20
2019-03-22T16:59:17.642Z,76.50
2019-03-22T17:02:00.695Z,75.00
2019-03-22T17:04:37.090Z,74.00
2019-03-22T17:07:20.440Z,73.90
2019-03-22T17:09:56.512Z,74.20
2019-03-22T17:12:39.457Z,74.60
2019-03-22T17:15:23.048Z,74.90
2019-03-22T17:17:58.694Z,74.70
2019-03-22T17:20:41.043Z,75.20
2019-03-22T17:23:17.132Z,75.10
2019-03-22T17:25:59.682Z,74.30
2019-03-22T17:28:42.835Z,75.00
2019-03-22T17:31:25.274Z,76.30
2019-03-22T17:34:01.810Z,75.70
2019-03-22T17:36:38.002Z,75.20
2019-03-22T17:39:21.365Z,75.90
2019-03-22T17:41:57.099Z,75.30
2019-03-22T17:44:39.466Z,75.20
2019-03-22T17:47:22.553Z,76.30
2019-03-22T17:49:59.013Z,75.80
2019-03-22T17:52:34.971Z,75.90
2019-03-22T17:55:20.332Z,76.20
2019-03-22T17:57:56.696Z,76.30
2019-03-22T18:00:38.989Z,76.40
2019-03-22T18:03:21.036Z,76.40
2019-03-22T18:05:57.634Z,76.50
2019-03-22T18:08:40.003Z,76.60
2019-03-22T18:11:29.133Z,77.10
2019-03-22T18:14:18.859Z,77.10
2019-03-22T18:17:01.431Z,77.20
2019-03-22T18:19:37.858Z,77.00
2019-03-22T18:22:20.524Z,76.70
2019-03-22T18:25:03.748Z,76.70
2019-03-22T18:27:46.436Z,76.90
2019-03-22T18:30:24.236Z,77.60
2019-03-22T18:33:06.974Z,77.00
2019-03-22T18:35:42.501Z,76.80
2019-03-22T18:38:24.347Z,77.20
2019-03-22T18:41:07.208Z,77.20
2019-03-22T18:43:49.804Z,77.60
2019-03-22T18:46:32.772Z,77.60
2019-03-22T18:49:22.190Z,78.00
2019-03-22T18:51:58.364Z,78.50
2019-03-22T18:54:40.952Z,78.80
2019-03-22T18:57:16.920Z,79.30
2019-03-22T19:00:00.061Z,79.50
2019-03-22T19:02:48.848Z,79.90
2019-03-22T19:05:31.532Z,80.10
2019-03-22T19:08:07.990Z,80.60
2019-03-22T19:10:44.414Z,80.80
2019-03-22T19:13:30.974Z,81.60
2019-03-22T19:16:04.448Z,82.00
2019-03-22T19:18:46.601Z,82.30
2019-03-22T19:21:29.726Z,82.60
2019-03-22T19:24:14.355Z,82.80
2019-03-22T19:26:50.532Z,83.40
2019-03-22T19:29:33.083Z,83.50
2019-03-22T19:32:13.321Z,83.80
2019-03-22T19:34:54.697Z,83.50
2019-03-22T19:37:30.814Z,83.70
2019-03-22T19:40:17.051Z,83.70
2019-03-22T19:42:59.750Z,83.70
2019-03-22T19:45:45.447Z,83.80
2019-03-22T19:48:21.799Z,83.80
2019-03-22T19:50:57.525Z,83.80
2019-03-22T19:53:39.770Z,83.80
2019-03-22T19:56:23.259Z,83.80
2019-03-22T19:59:06.373Z,83.80
2019-03-22T20:01:42.645Z,84.10
2019-03-22T20:04:24.752Z,84.10
2019-03-22T20:07:00.365Z,84.00
2019-03-22T20:09:43.449Z,84.00
2019-03-22T20:12:32.545Z,83.70
2019-03-22T20:15:16.610Z,83.90
2019-03-22T20:17:52.842Z,84.20
2019-03-22T20:20:36.222Z,84.10
2019-03-22T20:23:11.991Z,84.20
2019-03-22T20:25:54.610Z,84.20
2019-03-22T20:28:30.917Z,84.10
2019-03-22T20:31:13.851Z,84.50
2019-03-22T20:33:56.693Z,84.30
2019-03-22T20:36:39.494Z,84.90
2019-03-22T20:39:22.096Z,85.20
2019-03-22T20:42:05.323Z,85.10
2019-03-22T20:44:41.150Z,85.00
2019-03-22T20:47:24.092Z,85.10
2019-03-22T20:50:07.275Z,85.00
2019-03-22T20:52:50.334Z,85.40
2019-03-22T20:55:26.222Z,86.00
2019-03-22T20:58:09.019Z,85.90
2019-03-22T21:00:45.375Z,85.50
2019-03-22T21:03:28.160Z,85.70
2019-03-22T21:06:04.719Z,86.20
2019-03-22T21:08:47.316Z,86.00
2019-03-22T21:11:29.490Z,86.40
2019-03-22T21:14:12.401Z,86.10
2019-03-22T21:16:54.491Z,86.10
2019-03-22T21:19:36.280Z,86.20
2019-03-22T21:22:18.497Z,86.10
2019-03-22T21:25:00.427Z,86.60
2019-03-22T21:27:36.874Z,87.00
2019-03-22T21:30:22.575Z,87.00
2019-03-22T21:33:04.750Z,87.30
2019-03-22T21:35:40.505Z,87.60
2019-03-22T21:38:23.423Z,87.90
2019-03-22T21:41:06.994Z,87.60
2019-03-22T21:43:43.422Z,87.70
2019-03-22T21:46:19.381Z,88.80
2019-03-22T21:49:02.665Z,89.20
2019-03-22T21:51:38.531Z,89.10
2019-03-22T21:54:20.754Z,89.30
2019-03-22T21:57:10.651Z,89.20
2019-03-22T21:59:46.557Z,89.90
2019-03-22T22:02:28.790Z,90.70
2019-03-22T22:05:12.658Z,90.70
2019-03-22T22:07:48.537Z,90.20
2019-03-22T22:10:31.273Z,90.40
2019-03-22T22:13:07.321Z,90.40
2019-03-22T22:15:49.904Z,90.10
2019-03-22T22:18:25.583Z,89.70
2019-03-22T22:21:08.597Z,89.20
2019-03-22T22:23:44.430Z,89.30
2019-03-22T22:26:27.190Z,90.00
2019-03-22T22:29:02.622Z,90.20
2019-03-22T22:31:44.901Z,89.40
2019-03-22T22:34:27.361Z,89.60
2019-03-22T22:37:03.008Z,90.20
2019-03-22T22:39:45.946Z,90.20
2019-03-22T22:42:28.362Z,90.30
2019-03-22T22:45:10.676Z,90.60
2019-03-22T22:47:47.443Z,90.90
2019-03-22T22:50:30.409Z,90.60
2019-03-22T22:53:06.797Z,90.70
2019-03-22T22:55:49.849Z,90.80
2019-03-22T22:58:32.944Z,90.70
2019-03-22T23:01:08.796Z,90.50
2019-03-22T23:03:44.610Z,90.60
2019-03-22T23:06:27.501Z,90.60
2019-03-22T23:09:05.426Z,90.50
2019-03-22T23:11:47.599Z,90.30
2019-03-22T23:14:29.811Z,90.40
2019-03-22T23:17:05.531Z,90.20
2019-03-22T23:19:48.940Z,90.30
2019-03-22T23:22:31.840Z,90.20
2019-03-22T23:25:21.962Z,90.20
2019-03-22T23:28:04.193Z,90.10
2019-03-22T23:30:46.715Z,90.20
2019-03-22T23:33:29.614Z,90.30
2019-03-22T23:36:20.189Z,90.20
2019-03-22T23:38:56.514Z,90.40
2019-03-22T23:41:32.476Z,90.20
2019-03-22T23:44:14.471Z,90.40
2019-03-22T23:46:50.494Z,90.40
2019-03-22T23:49:33.782Z,90.50
2019-03-22T23:52:09.831Z,90.70
2019-03-22T23:54:52.320Z,90.70
2019-03-22T23:57:35.085Z,90.80
